createdAt,value
2023-01-09T00:06:54.118Z,3.15
2023-01-09T00:16:55.652Z,3.47
2023-01-09T00:26:56.953Z,2.30
2023-01-09T00:36:58.256Z,2.25
2023-01-09T00:46:59.533Z,2.78
2023-01-09T00:57:00.813Z,1.55
2023-01-09T01:07:20.873Z,1.10
2023-01-09T01:17:22.160Z,2.67
2023-01-09T01:27:23.407Z,2.80
2023-01-09T01:37:24.736Z,1.42
2023-01-09T01:47:26.049Z,1.45
2023-01-09T01:57:27.312Z,2.35
2023-01-09T02:07:28.668Z,1.98
2023-01-09T02:17:29.938Z,2.50
2023-01-09T02:27:31.281Z,1.75
2023-01-09T02:37:32.487Z,3.47
2023-01-09T02:47:33.761Z,3.00
2023-01-09T02:57:35.014Z,2.95
2023-01-09T03:07:36.275Z,2.00
2023-01-09T03:17:37.463Z,2.20
2023-01-09T03:27:40.065Z,4.35
2023-01-09T03:37:41.329Z,1.42
2023-01-09T03:47:42.556Z,2.95
2023-01-09T03:57:43.792Z,1.85
2023-01-09T04:07:45.201Z,1.42
2023-01-09T04:17:46.447Z,2.28
2023-01-09T04:27:49.360Z,3.20
2023-01-09T04:37:50.669Z,3.53
2023-01-09T04:47:51.934Z,2.42
2023-01-09T04:57:53.232Z,4.55
2023-01-09T05:07:54.477Z,6.38
2023-01-09T05:17:55.729Z,2.38
2023-01-09T05:27:56.963Z,7.68
2023-01-09T05:37:58.204Z,3.90
2023-01-09T05:47:59.425Z,11.55
2023-01-09T05:58:00.643Z,6.75
2023-01-09T06:08:02.070Z,5.63
2023-01-09T06:18:04.577Z,4.15
2023-01-09T06:28:05.829Z,7.13
2023-01-09T06:38:07.145Z,3.72
2023-01-09T06:48:08.447Z,4.57
2023-01-09T06:58:09.728Z,7.35
2023-01-09T07:08:11.028Z,4.55
2023-01-09T07:18:12.360Z,6.57
2023-01-09T07:28:13.588Z,8.43
2023-01-09T07:38:14.824Z,5.60
2023-01-09T07:48:16.075Z,7.55
2023-01-09T07:58:17.367Z,5.70
2023-01-09T08:08:18.725Z,6.95
2023-01-09T08:18:19.960Z,10.70
2023-01-09T08:28:21.175Z,3.90
2023-01-09T08:38:22.457Z,4.40
2023-01-09T08:48:23.716Z,8.23
2023-01-09T08:58:24.951Z,5.63
2023-01-09T09:08:26.242Z,4.93
2023-01-09T09:18:27.533Z,6.20
2023-01-09T09:28:28.785Z,4.00
2023-01-09T09:38:30.041Z,2.45
2023-01-09T09:48:31.321Z,9.07
2023-01-09T09:58:32.638Z,6.90
2023-01-09T10:08:33.955Z,4.90
2023-01-09T10:18:35.210Z,3.13
2023-01-09T10:28:36.445Z,4.68
2023-01-09T10:38:37.700Z,6.70
2023-01-09T10:48:38.923Z,2.40
2023-01-09T10:58:40.154Z,6.10
2023-01-09T11:08:42.164Z,4.18
2023-01-09T11:18:43.445Z,5.75
2023-01-09T11:28:44.678Z,9.73
2023-01-09T11:38:45.893Z,6.05
2023-01-09T11:48:48.303Z,8.90
2023-01-09T11:58:49.571Z,10.45
2023-01-09T12:08:50.838Z,6.32
2023-01-09T12:18:52.090Z,3.83
2023-01-09T12:28:53.389Z,8.88
2023-01-09T12:38:54.641Z,5.43
2023-01-09T12:48:55.880Z,9.35
2023-01-09T12:58:57.155Z,6.10
2023-01-09T13:08:58.591Z,2.58
2023-01-09T13:18:59.821Z,4.45
2023-01-09T13:29:03.183Z,3.22
2023-01-09T13:39:04.424Z,3.58
2023-01-09T13:49:05.717Z,5.45
2023-01-09T13:59:09.336Z,4.70
2023-01-09T14:09:10.645Z,3.47
2023-01-09T14:19:11.877Z,2.83
2023-01-09T14:29:13.166Z,2.88
2023-01-09T14:39:14.563Z,3.47
2023-01-09T14:49:16.003Z,3.38
2023-01-09T14:59:17.336Z,4.13
2023-01-09T15:09:18.610Z,6.25
2023-01-09T15:19:19.874Z,5.40
2023-01-09T15:29:21.575Z,6.57
2023-01-09T15:39:22.840Z,6.00
2023-01-09T15:49:24.083Z,6.50
2023-01-09T15:59:26.913Z,8.05
2023-01-09T16:09:28.314Z,10.55
2023-01-09T16:19:29.528Z,13.05
2023-01-09T16:29:30.780Z,11.48
2023-01-09T16:39:31.986Z,10.60
2023-01-09T16:49:33.617Z,7.60
2023-01-09T16:59:34.820Z,9.50
2023-01-09T17:09:37.548Z,7.85
2023-01-09T17:19:38.802Z,9.32
2023-01-09T17:29:40.126Z,11.10
2023-01-09T17:39:41.427Z,7.75
2023-01-09T17:49:42.728Z,6.00
2023-01-09T17:59:44.866Z,6.60
2023-01-09T18:09:46.260Z,5.22
2023-01-09T18:19:47.776Z,6.25
2023-01-09T18:29:49.484Z,7.45
2023-01-09T18:39:50.843Z,6.93
2023-01-09T18:49:52.098Z,6.75
2023-01-09T18:59:53.347Z,5.95
2023-01-09T19:09:54.597Z,6.68
2023-01-09T19:19:55.833Z,7.10
2023-01-09T19:29:57.116Z,9.20
2023-01-09T19:39:58.399Z,7.85
2023-01-09T19:49:59.644Z,4.18
2023-01-09T20:00:00.905Z,10.02
2023-01-09T20:10:02.113Z,5.75
2023-01-09T20:20:03.358Z,8.90
2023-01-09T20:30:04.593Z,10.23
2023-01-09T20:40:05.825Z,7.30
2023-01-09T20:50:10.192Z,10.30
2023-01-09T21:00:11.689Z,7.47
2023-01-09T21:10:13.133Z,9.73
2023-01-09T21:20:14.687Z,10.13
2023-01-09T21:30:16.065Z,6.80
2023-01-09T21:40:17.847Z,8.07
2023-01-09T21:50:19.361Z,4.85
2023-01-09T22:00:20.735Z,2.28
2023-01-09T22:10:33.939Z,4.10
2023-01-09T22:20:35.561Z,1.45
2023-01-09T22:30:37.581Z,2.40
2023-01-09T22:40:38.977Z,2.88
2023-01-09T22:50:40.462Z,2.17
2023-01-09T23:00:41.910Z,4.65
2023-01-09T23:10:43.305Z,1.88
2023-01-09T23:20:44.597Z,3.58
2023-01-09T23:30:45.953Z,3.78
2023-01-09T23:40:47.185Z,3.95
2023-01-09T23:50:48.453Z,3.35
